sensor_id;sensor_type;location;lat;lon;timestamp;P1;durP1;ratioP1;P2;durP2;ratioP2
69534;SDS011;56754;51.568;5.048;2023-03-01T00:01:11;9.07;;;4.55;;
69534;SDS011;56754;51.568;5.048;2023-03-01T00:03:40;8.32;;;3.95;;
69534;SDS011;56754;51.568;5.048;2023-03-01T00:06:05;9.20;;;4.70;;
69534;SDS011;56754;51.568;5.048;2023-03-01T00:08:30;9.20;;;4.30;;
69534;SDS011;56754;51.568;5.048;2023-03-01T00:11:00;10.48;;;4.35;;
69534;SDS011;56754;51.568;5.048;2023-03-01T00:13:52;7.60;;;4.20;;
69534;SDS011;56754;51.568;5.048;2023-03-01T00:16:21;8.47;;;4.20;;
69534;SDS011;56754;51.568;5.048;2023-03-01T00:18:49;7.40;;;3.85;;
69534;SDS011;56754;51.568;5.048;2023-03-01T00:21:15;9.75;;;4.18;;
69534;SDS011;56754;51.568;5.048;2023-03-01T00:23:40;9.63;;;4.23;;
69534;SDS011;56754;51.568;5.048;2023-03-01T00:26:07;9.17;;;4.37;;
69534;SDS011;56754;51.568;5.048;2023-03-01T00:28:33;7.80;;;4.30;;
69534;SDS011;56754;51.568;5.048;2023-03-01T00:31:03;8.13;;;3.90;;
69534;SDS011;56754;51.568;5.048;2023-03-01T00:33:29;7.87;;;4.30;;
69534;SDS011;56754;51.568;5.048;2023-03-01T00:35:54;9.33;;;4.47;;
69534;SDS011;56754;51.568;5.048;2023-03-01T00:38:22;8.10;;;4.28;;
69534;SDS011;56754;51.568;5.048;2023-03-01T00:40:47;8.33;;;3.93;;
69534;SDS011;56754;51.568;5.048;2023-03-01T00:43:12;7.47;;;3.80;;
69534;SDS011;56754;51.568;5.048;2023-03-01T00:45:38;8.25;;;4.25;;
69534;SDS011;56754;51.568;5.048;2023-03-01T00:48:03;8.27;;;4.10;;
69534;SDS011;56754;51.568;5.048;2023-03-01T00:50:29;9.33;;;4.17;;
69534;SDS011;56754;51.568;5.048;2023-03-01T00:52:54;9.13;;;4.30;;
69534;SDS011;56754;51.568;5.048;2023-03-01T00:55:20;8.20;;;4.60;;
69534;SDS011;56754;51.568;5.048;2023-03-01T00:57:46;9.47;;;4.10;;
69534;SDS011;56754;51.568;5.048;2023-03-01T01:00:11;7.57;;;4.10;;
69534;SDS011;56754;51.568;5.048;2023-03-01T01:02:37;9.37;;;3.93;;
69534;SDS011;56754;51.568;5.048;2023-03-01T01:05:02;9.03;;;4.40;;
69534;SDS011;56754;51.568;5.048;2023-03-01T01:07:28;8.02;;;4.00;;
69534;SDS011;56754;51.568;5.048;2023-03-01T01:09:54;7.60;;;3.93;;
69534;SDS011;56754;51.568;5.048;2023-03-01T01:12:19;7.47;;;4.10;;
69534;SDS011;56754;51.568;5.048;2023-03-01T01:14:45;9.40;;;4.38;;
69534;SDS011;56754;51.568;5.048;2023-03-01T01:17:11;9.13;;;4.40;;
69534;SDS011;56754;51.568;5.048;2023-03-01T01:19:36;8.07;;;4.45;;
69534;SDS011;56754;51.568;5.048;2023-03-01T01:22:02;7.10;;;3.60;;
69534;SDS011;56754;51.568;5.048;2023-03-01T01:24:27;8.10;;;4.37;;
69534;SDS011;56754;51.568;5.048;2023-03-01T01:26:52;7.87;;;4.10;;
69534;SDS011;56754;51.568;5.048;2023-03-01T01:29:17;7.80;;;4.30;;
69534;SDS011;56754;51.568;5.048;2023-03-01T01:31:43;8.18;;;4.03;;
69534;SDS011;56754;51.568;5.048;2023-03-01T01:34:13;7.70;;;4.27;;
69534;SDS011;56754;51.568;5.048;2023-03-01T01:36:40;9.82;;;4.30;;
69534;SDS011;56754;51.568;5.048;2023-03-01T01:39:05;8.13;;;3.90;;
69534;SDS011;56754;51.568;5.048;2023-03-01T01:41:31;7.78;;;4.03;;
69534;SDS011;56754;51.568;5.048;2023-03-01T01:47:02;9.13;;;4.03;;
69534;SDS011;56754;51.568;5.048;2023-03-01T01:49:37;8.57;;;4.37;;
69534;SDS011;56754;51.568;5.048;2023-03-01T01:52:18;7.25;;;3.97;;
69534;SDS011;56754;51.568;5.048;2023-03-01T01:57:22;10.30;;;4.15;;
69534;SDS011;56754;51.568;5.048;2023-03-01T01:59:53;8.73;;;4.35;;
69534;SDS011;56754;51.568;5.048;2023-03-01T02:02:22;9.33;;;4.13;;
69534;SDS011;56754;51.568;5.048;2023-03-01T02:04:48;8.32;;;4.32;;
69534;SDS011;56754;51.568;5.048;2023-03-01T02:07:21;8.25;;;4.18;;
69534;SDS011;56754;51.568;5.048;2023-03-01T02:09:49;8.10;;;4.63;;
69534;SDS011;56754;51.568;5.048;2023-03-01T02:12:17;9.87;;;4.20;;
69534;SDS011;56754;51.568;5.048;2023-03-01T02:14:47;8.77;;;4.35;;
69534;SDS011;56754;51.568;5.048;2023-03-01T02:17:12;8.30;;;4.20;;
69534;SDS011;56754;51.568;5.048;2023-03-01T02:22:28;7.97;;;3.90;;
69534;SDS011;56754;51.568;5.048;2023-03-01T02:27:20;8.47;;;4.17;;
69534;SDS011;56754;51.568;5.048;2023-03-01T02:29:51;8.35;;;4.30;;
69534;SDS011;56754;51.568;5.048;2023-03-01T02:32:17;7.43;;;4.17;;
69534;SDS011;56754;51.568;5.048;2023-03-01T02:34:44;9.68;;;4.38;;
69534;SDS011;56754;51.568;5.048;2023-03-01T02:37:11;7.83;;;3.90;;
69534;SDS011;56754;51.568;5.048;2023-03-01T02:39:40;8.15;;;4.28;;
69534;SDS011;56754;51.568;5.048;2023-03-01T02:42:16;8.85;;;4.20;;
69534;SDS011;56754;51.568;5.048;2023-03-01T02:44:46;8.87;;;4.43;;
69534;SDS011;56754;51.568;5.048;2023-03-01T02:47:11;9.10;;;4.38;;
69534;SDS011;56754;51.568;5.048;2023-03-01T02:49:37;7.50;;;3.60;;
69534;SDS011;56754;51.568;5.048;2023-03-01T02:57:28;9.73;;;4.25;;
69534;SDS011;56754;51.568;5.048;2023-03-01T02:59:56;9.00;;;4.40;;
69534;SDS011;56754;51.568;5.048;2023-03-01T03:02:25;9.25;;;4.53;;
69534;SDS011;56754;51.568;5.048;2023-03-01T03:04:52;12.10;;;4.77;;
69534;SDS011;56754;51.568;5.048;2023-03-01T03:07:18;7.93;;;4.20;;
69534;SDS011;56754;51.568;5.048;2023-03-01T03:09:43;9.03;;;4.50;;
69534;SDS011;56754;51.568;5.048;2023-03-01T03:12:09;9.27;;;4.80;;
69534;SDS011;56754;51.568;5.048;2023-03-01T03:14:34;8.53;;;4.37;;
69534;SDS011;56754;51.568;5.048;2023-03-01T03:16:59;7.47;;;4.07;;
69534;SDS011;56754;51.568;5.048;2023-03-01T03:19:24;7.13;;;4.30;;
69534;SDS011;56754;51.568;5.048;2023-03-01T03:21:50;7.80;;;4.07;;
69534;SDS011;56754;51.568;5.048;2023-03-01T03:24:15;7.93;;;4.60;;
69534;SDS011;56754;51.568;5.048;2023-03-01T03:26:40;8.13;;;4.07;;
69534;SDS011;56754;51.568;5.048;2023-03-01T03:29:06;9.77;;;4.80;;
69534;SDS011;56754;51.568;5.048;2023-03-01T03:31:31;8.43;;;4.57;;
69534;SDS011;56754;51.568;5.048;2023-03-01T03:33:56;8.93;;;4.23;;
69534;SDS011;56754;51.568;5.048;2023-03-01T03:36:22;8.82;;;4.32;;
69534;SDS011;56754;51.568;5.048;2023-03-01T03:38:48;8.57;;;4.20;;
69534;SDS011;56754;51.568;5.048;2023-03-01T03:41:14;10.15;;;4.78;;
69534;SDS011;56754;51.568;5.048;2023-03-01T03:43:41;8.93;;;4.83;;
69534;SDS011;56754;51.568;5.048;2023-03-01T03:46:07;8.73;;;4.50;;
69534;SDS011;56754;51.568;5.048;2023-03-01T03:48:36;11.77;;;4.43;;
69534;SDS011;56754;51.568;5.048;2023-03-01T03:51:03;8.35;;;4.32;;
69534;SDS011;56754;51.568;5.048;2023-03-01T03:53:29;7.82;;;4.35;;
69534;SDS011;56754;51.568;5.048;2023-03-01T03:55:54;8.87;;;4.60;;
69534;SDS011;56754;51.568;5.048;2023-03-01T03:58:20;9.13;;;4.53;;
69534;SDS011;56754;51.568;5.048;2023-03-01T04:00:48;8.90;;;4.20;;
69534;SDS011;56754;51.568;5.048;2023-03-01T04:03:15;7.75;;;3.97;;
69534;SDS011;56754;51.568;5.048;2023-03-01T04:05:42;7.97;;;4.60;;
69534;SDS011;56754;51.568;5.048;2023-03-01T04:08:08;9.27;;;4.30;;
69534;SDS011;56754;51.568;5.048;2023-03-01T04:10:35;6.63;;;3.80;;
69534;SDS011;56754;51.568;5.048;2023-03-01T04:13:12;8.90;;;4.37;;
69534;SDS011;56754;51.568;5.048;2023-03-01T04:15:39;8.05;;;4.15;;
69534;SDS011;56754;51.568;5.048;2023-03-01T04:18:05;8.20;;;4.22;;
69534;SDS011;56754;51.568;5.048;2023-03-01T04:20:32;9.77;;;4.10;;
69534;SDS011;56754;51.568;5.048;2023-03-01T04:23:06;7.88;;;4.15;;
69534;SDS011;56754;51.568;5.048;2023-03-01T04:25:34;8.40;;;4.30;;
69534;SDS011;56754;51.568;5.048;2023-03-01T04:27:59;7.83;;;4.23;;
69534;SDS011;56754;51.568;5.048;2023-03-01T04:30:24;8.23;;;4.17;;
69534;SDS011;56754;51.568;5.048;2023-03-01T04:32:50;10.13;;;4.53;;
69534;SDS011;56754;51.568;5.048;2023-03-01T04:35:15;9.33;;;4.63;;
69534;SDS011;56754;51.568;5.048;2023-03-01T04:37:40;8.37;;;4.30;;
69534;SDS011;56754;51.568;5.048;2023-03-01T04:40:06;8.00;;;4.10;;
69534;SDS011;56754;51.568;5.048;2023-03-01T04:42:31;9.50;;;4.28;;
69534;SDS011;56754;51.568;5.048;2023-03-01T04:44:57;8.53;;;4.27;;
69534;SDS011;56754;51.568;5.048;2023-03-01T04:47:22;8.70;;;4.10;;
69534;SDS011;56754;51.568;5.048;2023-03-01T04:49:47;7.77;;;3.93;;
69534;SDS011;56754;51.568;5.048;2023-03-01T04:52:12;9.40;;;4.77;;
69534;SDS011;56754;51.568;5.048;2023-03-01T04:54:38;8.13;;;3.80;;
69534;SDS011;56754;51.568;5.048;2023-03-01T04:57:03;9.73;;;4.90;;
69534;SDS011;56754;51.568;5.048;2023-03-01T04:59:28;8.10;;;4.03;;
69534;SDS011;56754;51.568;5.048;2023-03-01T05:01:54;7.23;;;4.03;;
69534;SDS011;56754;51.568;5.048;2023-03-01T05:04:21;9.50;;;4.75;;
69534;SDS011;56754;51.568;5.048;2023-03-01T05:06:47;9.32;;;4.40;;
69534;SDS011;56754;51.568;5.048;2023-03-01T05:09:13;8.77;;;4.53;;
69534;SDS011;56754;51.568;5.048;2023-03-01T05:11:38;10.10;;;4.63;;
69534;SDS011;56754;51.568;5.048;2023-03-01T05:14:04;10.82;;;4.40;;
69534;SDS011;56754;51.568;5.048;2023-03-01T05:16:31;10.40;;;4.53;;
69534;SDS011;56754;51.568;5.048;2023-03-01T05:18:57;10.65;;;4.72;;
69534;SDS011;56754;51.568;5.048;2023-03-01T05:21:23;8.13;;;4.38;;
69534;SDS011;56754;51.568;5.048;2023-03-01T05:23:50;9.32;;;4.18;;
69534;SDS011;56754;51.568;5.048;2023-03-01T05:26:16;8.17;;;4.00;;
69534;SDS011;56754;51.568;5.048;2023-03-01T05:28:44;7.07;;;3.72;;
69534;SDS011;56754;51.568;5.048;2023-03-01T05:31:10;7.90;;;3.83;;
69534;SDS011;56754;51.568;5.048;2023-03-01T05:33:37;8.03;;;3.93;;
69534;SDS011;56754;51.568;5.048;2023-03-01T05:36:03;8.77;;;3.92;;
69534;SDS011;56754;51.568;5.048;2023-03-01T05:38:29;8.65;;;3.92;;
69534;SDS011;56754;51.568;5.048;2023-03-01T05:40:54;8.07;;;3.90;;
69534;SDS011;56754;51.568;5.048;2023-03-01T05:43:20;8.57;;;3.70;;
69534;SDS011;56754;51.568;5.048;2023-03-01T05:45:45;9.97;;;3.80;;
69534;SDS011;56754;51.568;5.048;2023-03-01T05:48:11;7.73;;;4.20;;
69534;SDS011;56754;51.568;5.048;2023-03-01T05:50:38;7.22;;;3.80;;
69534;SDS011;56754;51.568;5.048;2023-03-01T05:53:07;7.53;;;3.90;;
69534;SDS011;56754;51.568;5.048;2023-03-01T05:55:41;8.80;;;3.90;;
69534;SDS011;56754;51.568;5.048;2023-03-01T05:58:07;6.78;;;3.40;;
69534;SDS011;56754;51.568;5.048;2023-03-01T06:00:35;8.00;;;3.85;;
69534;SDS011;56754;51.568;5.048;2023-03-01T06:03:01;8.23;;;3.90;;
69534;SDS011;56754;51.568;5.048;2023-03-01T06:05:27;11.27;;;4.00;;
69534;SDS011;56754;51.568;5.048;2023-03-01T06:07:53;8.30;;;3.70;;
69534;SDS011;56754;51.568;5.048;2023-03-01T06:10:19;7.63;;;3.97;;
69534;SDS011;56754;51.568;5.048;2023-03-01T06:12:46;10.18;;;4.05;;
69534;SDS011;56754;51.568;5.048;2023-03-01T06:15:12;8.07;;;3.97;;
69534;SDS011;56754;51.568;5.048;2023-03-01T06:17:39;7.67;;;3.50;;
69534;SDS011;56754;51.568;5.048;2023-03-01T06:20:07;8.00;;;3.75;;
69534;SDS011;56754;51.568;5.048;2023-03-01T06:22:34;8.70;;;3.95;;
69534;SDS011;56754;51.568;5.048;2023-03-01T06:25:00;8.03;;;3.40;;
69534;SDS011;56754;51.568;5.048;2023-03-01T06:27:25;6.83;;;3.60;;
69534;SDS011;56754;51.568;5.048;2023-03-01T06:29:50;6.95;;;3.50;;
69534;SDS011;56754;51.568;5.048;2023-03-01T06:32:16;7.47;;;3.63;;
69534;SDS011;56754;51.568;5.048;2023-03-01T06:34:41;7.73;;;3.87;;
69534;SDS011;56754;51.568;5.048;2023-03-01T06:37:07;9.83;;;4.00;;
69534;SDS011;56754;51.568;5.048;2023-03-01T06:39:33;7.40;;;3.67;;
69534;SDS011;56754;51.568;5.048;2023-03-01T06:41:58;6.90;;;3.70;;
69534;SDS011;56754;51.568;5.048;2023-03-01T06:44:24;9.00;;;3.80;;
69534;SDS011;56754;51.568;5.048;2023-03-01T06:46:50;8.70;;;3.90;;
69534;SDS011;56754;51.568;5.048;2023-03-01T06:49:15;8.30;;;3.70;;
69534;SDS011;56754;51.568;5.048;2023-03-01T06:51:41;8.87;;;4.00;;
69534;SDS011;56754;51.568;5.048;2023-03-01T06:54:06;7.00;;;3.53;;
69534;SDS011;56754;51.568;5.048;2023-03-01T06:56:32;8.13;;;3.80;;
69534;SDS011;56754;51.568;5.048;2023-03-01T06:58:58;7.05;;;3.40;;
69534;SDS011;56754;51.568;5.048;2023-03-01T07:01:23;8.47;;;4.00;;
69534;SDS011;56754;51.568;5.048;2023-03-01T07:03:48;8.37;;;3.60;;
69534;SDS011;56754;51.568;5.048;2023-03-01T07:06:14;8.10;;;3.70;;
69534;SDS011;56754;51.568;5.048;2023-03-01T07:08:39;9.07;;;3.90;;
69534;SDS011;56754;51.568;5.048;2023-03-01T07:11:04;7.63;;;3.60;;
69534;SDS011;56754;51.568;5.048;2023-03-01T07:13:29;9.40;;;5.05;;
69534;SDS011;56754;51.568;5.048;2023-03-01T07:15:55;7.87;;;3.43;;
69534;SDS011;56754;51.568;5.048;2023-03-01T07:18:20;7.60;;;3.17;;
69534;SDS011;56754;51.568;5.048;2023-03-01T07:20:46;6.83;;;3.30;;
69534;SDS011;56754;51.568;5.048;2023-03-01T07:23:11;7.80;;;3.57;;
69534;SDS011;56754;51.568;5.048;2023-03-01T07:25:36;6.83;;;3.47;;
69534;SDS011;56754;51.568;5.048;2023-03-01T07:28:01;11.35;;;3.90;;
69534;SDS011;56754;51.568;5.048;2023-03-01T07:30:27;9.93;;;3.43;;
69534;SDS011;56754;51.568;5.048;2023-03-01T07:32:52;8.20;;;3.10;;
69534;SDS011;56754;51.568;5.048;2023-03-01T07:35:18;9.27;;;3.30;;
69534;SDS011;56754;51.568;5.048;2023-03-01T07:37:43;6.90;;;3.30;;
69534;SDS011;56754;51.568;5.048;2023-03-01T07:40:08;7.20;;;3.47;;
69534;SDS011;56754;51.568;5.048;2023-03-01T07:42:34;7.67;;;3.60;;
69534;SDS011;56754;51.568;5.048;2023-03-01T07:45:00;7.38;;;3.22;;
69534;SDS011;56754;51.568;5.048;2023-03-01T07:47:25;7.47;;;3.17;;
69534;SDS011;56754;51.568;5.048;2023-03-01T07:49:50;8.27;;;3.40;;
69534;SDS011;56754;51.568;5.048;2023-03-01T07:52:16;7.17;;;3.40;;
69534;SDS011;56754;51.568;5.048;2023-03-01T07:54:42;7.80;;;3.50;;
69534;SDS011;56754;51.568;5.048;2023-03-01T07:57:08;7.38;;;3.60;;
69534;SDS011;56754;51.568;5.048;2023-03-01T07:59:33;9.00;;;3.37;;
69534;SDS011;56754;51.568;5.048;2023-03-01T08:01:58;7.07;;;3.20;;
69534;SDS011;56754;51.568;5.048;2023-03-01T08:04:24;7.00;;;3.27;;
69534;SDS011;56754;51.568;5.048;2023-03-01T08:06:49;7.57;;;3.30;;
69534;SDS011;56754;51.568;5.048;2023-03-01T08:09:14;6.30;;;3.33;;
69534;SDS011;56754;51.568;5.048;2023-03-01T08:11:40;7.45;;;3.28;;
69534;SDS011;56754;51.568;5.048;2023-03-01T08:14:05;9.40;;;3.90;;
69534;SDS011;56754;51.568;5.048;2023-03-01T08:16:31;7.03;;;3.47;;
69534;SDS011;56754;51.568;5.048;2023-03-01T08:18:56;8.20;;;3.63;;
69534;SDS011;56754;51.568;5.048;2023-03-01T08:21:22;6.87;;;3.23;;
69534;SDS011;56754;51.568;5.048;2023-03-01T08:23:47;7.07;;;3.00;;
69534;SDS011;56754;51.568;5.048;2023-03-01T08:26:17;7.90;;;3.60;;
69534;SDS011;56754;51.568;5.048;2023-03-01T08:28:45;7.30;;;3.15;;
69534;SDS011;56754;51.568;5.048;2023-03-01T08:31:25;8.38;;;3.05;;
69534;SDS011;56754;51.568;5.048;2023-03-01T08:33:57;8.98;;;3.60;;
69534;SDS011;56754;51.568;5.048;2023-03-01T08:36:25;6.60;;;3.13;;
69534;SDS011;56754;51.568;5.048;2023-03-01T08:38:52;7.60;;;3.10;;
69534;SDS011;56754;51.568;5.048;2023-03-01T08:41:18;8.95;;;3.53;;
69534;SDS011;56754;51.568;5.048;2023-03-01T08:43:44;7.97;;;3.20;;
69534;SDS011;56754;51.568;5.048;2023-03-01T08:46:10;6.27;;;3.27;;
69534;SDS011;56754;51.568;5.048;2023-03-01T08:48:36;7.05;;;3.33;;
69534;SDS011;56754;51.568;5.048;2023-03-01T08:51:18;6.40;;;3.53;;
69534;SDS011;56754;51.568;5.048;2023-03-01T08:53:44;7.97;;;3.45;;
69534;SDS011;56754;51.568;5.048;2023-03-01T08:56:10;6.27;;;3.10;;
69534;SDS011;56754;51.568;5.048;2023-03-01T08:58:36;6.65;;;3.28;;
69534;SDS011;56754;51.568;5.048;2023-03-01T09:01:12;8.20;;;3.45;;
69534;SDS011;56754;51.568;5.048;2023-03-01T09:03:39;7.85;;;3.33;;
69534;SDS011;56754;51.568;5.048;2023-03-01T09:06:05;7.57;;;3.13;;
69534;SDS011;56754;51.568;5.048;2023-03-01T09:08:33;6.68;;;2.85;;
69534;SDS011;56754;51.568;5.048;2023-03-01T09:11:04;8.30;;;3.05;;
69534;SDS011;56754;51.568;5.048;2023-03-01T09:13:31;7.13;;;2.90;;
69534;SDS011;56754;51.568;5.048;2023-03-01T09:15:57;7.63;;;2.85;;
69534;SDS011;56754;51.568;5.048;2023-03-01T09:18:22;7.73;;;3.33;;
69534;SDS011;56754;51.568;5.048;2023-03-01T09:20:48;6.80;;;2.80;;
69534;SDS011;56754;51.568;5.048;2023-03-01T09:23:13;6.93;;;3.13;;
69534;SDS011;56754;51.568;5.048;2023-03-01T09:25:38;6.47;;;2.70;;
69534;SDS011;56754;51.568;5.048;2023-03-01T09:28:04;6.00;;;2.67;;
69534;SDS011;56754;51.568;5.048;2023-03-01T09:30:29;6.63;;;2.90;;
69534;SDS011;56754;51.568;5.048;2023-03-01T09:32:56;6.00;;;2.90;;
69534;SDS011;56754;51.568;5.048;2023-03-01T09:35:21;6.40;;;2.80;;
69534;SDS011;56754;51.568;5.048;2023-03-01T09:37:46;7.47;;;3.07;;
69534;SDS011;56754;51.568;5.048;2023-03-01T09:40:12;6.83;;;3.07;;
69534;SDS011;56754;51.568;5.048;2023-03-01T09:42:45;5.97;;;2.90;;
69534;SDS011;56754;51.568;5.048;2023-03-01T09:45:22;5.70;;;2.75;;
69534;SDS011;56754;51.568;5.048;2023-03-01T09:47:51;6.25;;;2.90;;
69534;SDS011;56754;51.568;5.048;2023-03-01T09:50:18;7.07;;;2.87;;
69534;SDS011;56754;51.568;5.048;2023-03-01T09:52:46;6.80;;;2.60;;
69534;SDS011;56754;51.568;5.048;2023-03-01T09:55:39;5.50;;;2.55;;
69534;SDS011;56754;51.568;5.048;2023-03-01T09:58:31;5.47;;;2.45;;
69534;SDS011;56754;51.568;5.048;2023-03-01T10:09:36;7.13;;;3.00;;
69534;SDS011;56754;51.568;5.048;2023-03-01T10:12:04;5.35;;;2.35;;
69534;SDS011;56754;51.568;5.048;2023-03-01T10:14:36;7.93;;;2.80;;
69534;SDS011;56754;51.568;5.048;2023-03-01T10:17:10;6.50;;;2.60;;
69534;SDS011;56754;51.568;5.048;2023-03-01T10:19:46;5.15;;;2.10;;
69534;SDS011;56754;51.568;5.048;2023-03-01T10:24:50;5.95;;;2.10;;
69534;SDS011;56754;51.568;5.048;2023-03-01T10:30:05;7.28;;;2.95;;
69534;SDS011;56754;51.568;5.048;2023-03-01T10:32:53;6.88;;;2.80;;
69534;SDS011;56754;51.568;5.048;2023-03-01T10:35:20;6.03;;;2.60;;
69534;SDS011;56754;51.568;5.048;2023-03-01T10:38:04;5.22;;;2.30;;
69534;SDS011;56754;51.568;5.048;2023-03-01T10:40:31;7.28;;;2.97;;
69534;SDS011;56754;51.568;5.048;2023-03-01T10:42:58;7.30;;;3.10;;
69534;SDS011;56754;51.568;5.048;2023-03-01T10:50:49;7.65;;;2.72;;
69534;SDS011;56754;51.568;5.048;2023-03-01T10:53:37;6.80;;;2.70;;
69534;SDS011;56754;51.568;5.048;2023-03-01T10:56:13;5.55;;;2.00;;
69534;SDS011;56754;51.568;5.048;2023-03-01T10:58:40;5.77;;;2.60;;
69534;SDS011;56754;51.568;5.048;2023-03-01T11:03:55;6.97;;;2.37;;
69534;SDS011;56754;51.568;5.048;2023-03-01T11:06:30;6.68;;;2.30;;
69534;SDS011;56754;51.568;5.048;2023-03-01T11:08:55;5.40;;;2.27;;
69534;SDS011;56754;51.568;5.048;2023-03-01T11:11:22;6.47;;;2.80;;
69534;SDS011;56754;51.568;5.048;2023-03-01T11:16:35;6.10;;;2.72;;
69534;SDS011;56754;51.568;5.048;2023-03-01T11:21:34;7.10;;;3.00;;
69534;SDS011;56754;51.568;5.048;2023-03-01T11:24:22;8.57;;;2.97;;
69534;SDS011;56754;51.568;5.048;2023-03-01T11:26:54;7.35;;;2.88;;
69534;SDS011;56754;51.568;5.048;2023-03-01T11:29:25;6.03;;;2.70;;
69534;SDS011;56754;51.568;5.048;2023-03-01T11:32:11;5.97;;;2.40;;
69534;SDS011;56754;51.568;5.048;2023-03-01T11:46:11;7.18;;;2.90;;
69534;SDS011;56754;51.568;5.048;2023-03-01T12:00:03;5.45;;;2.42;;
69534;SDS011;56754;51.568;5.048;2023-03-01T12:05:24;6.70;;;2.57;;
69534;SDS011;56754;51.568;5.048;2023-03-01T12:10:41;5.47;;;2.25;;
69534;SDS011;56754;51.568;5.048;2023-03-01T12:13:27;5.55;;;2.55;;
69534;SDS011;56754;51.568;5.048;2023-03-01T12:18:56;6.70;;;2.70;;
69534;SDS011;56754;51.568;5.048;2023-03-01T12:27:37;5.63;;;2.30;;
69534;SDS011;56754;51.568;5.048;2023-03-01T12:30:30;5.25;;;1.80;;
69534;SDS011;56754;51.568;5.048;2023-03-01T12:50:23;7.07;;;2.33;;
69534;SDS011;56754;51.568;5.048;2023-03-01T12:52:56;6.30;;;2.83;;
69534;SDS011;56754;51.568;5.048;2023-03-01T12:55:29;5.78;;;2.65;;
69534;SDS011;56754;51.568;5.048;2023-03-01T12:58:04;7.00;;;2.65;;
69534;SDS011;56754;51.568;5.048;2023-03-01T13:00:40;5.70;;;2.37;;
69534;SDS011;56754;51.568;5.048;2023-03-01T13:06:08;5.25;;;2.35;;
69534;SDS011;56754;51.568;5.048;2023-03-01T13:11:21;5.88;;;2.65;;
69534;SDS011;56754;51.568;5.048;2023-03-01T13:13:47;5.23;;;2.10;;
69534;SDS011;56754;51.568;5.048;2023-03-01T13:16:20;5.07;;;2.22;;
69534;SDS011;56754;51.568;5.048;2023-03-01T13:19:14;5.22;;;2.63;;
69534;SDS011;56754;51.568;5.048;2023-03-01T13:21:41;5.47;;;2.40;;
69534;SDS011;56754;51.568;5.048;2023-03-01T13:29:43;6.47;;;2.63;;
69534;SDS011;56754;51.568;5.048;2023-03-01T13:35:40;5.82;;;2.40;;
69534;SDS011;56754;51.568;5.048;2023-03-01T13:37:46;5.97;;;2.50;;
69534;SDS011;56754;51.568;5.048;2023-03-01T13:42:43;7.05;;;2.70;;
69534;SDS011;56754;51.568;5.048;2023-03-01T13:47:45;6.97;;;3.20;;
69534;SDS011;56754;51.568;5.048;2023-03-01T13:50:16;6.47;;;3.05;;
69534;SDS011;56754;51.568;5.048;2023-03-01T13:52:44;6.35;;;2.88;;
69534;SDS011;56754;51.568;5.048;2023-03-01T13:55:16;6.00;;;2.60;;
69534;SDS011;56754;51.568;5.048;2023-03-01T13:57:45;7.40;;;2.90;;
69534;SDS011;56754;51.568;5.048;2023-03-01T14:03:27;5.97;;;2.60;;
69534;SDS011;56754;51.568;5.048;2023-03-01T14:05:57;7.20;;;3.15;;
69534;SDS011;56754;51.568;5.048;2023-03-01T14:08:26;6.18;;;2.70;;
69534;SDS011;56754;51.568;5.048;2023-03-01T14:18:34;6.53;;;2.55;;
69534;SDS011;56754;51.568;5.048;2023-03-01T14:21:07;5.80;;;2.75;;
69534;SDS011;56754;51.568;5.048;2023-03-01T14:23:33;5.50;;;2.37;;
69534;SDS011;56754;51.568;5.048;2023-03-01T14:25:58;5.25;;;2.55;;
69534;SDS011;56754;51.568;5.048;2023-03-01T14:28:24;5.30;;;2.30;;
69534;SDS011;56754;51.568;5.048;2023-03-01T14:30:54;5.20;;;2.30;;
69534;SDS011;56754;51.568;5.048;2023-03-01T14:33:22;4.90;;;2.37;;
69534;SDS011;56754;51.568;5.048;2023-03-01T14:36:00;5.82;;;2.40;;
69534;SDS011;56754;51.568;5.048;2023-03-01T14:38:30;5.95;;;3.00;;
69534;SDS011;56754;51.568;5.048;2023-03-01T14:41:07;6.57;;;2.50;;
69534;SDS011;56754;51.568;5.048;2023-03-01T14:43:33;6.10;;;2.58;;
69534;SDS011;56754;51.568;5.048;2023-03-01T14:45:58;6.67;;;2.30;;
69534;SDS011;56754;51.568;5.048;2023-03-01T14:48:24;5.50;;;2.42;;
69534;SDS011;56754;51.568;5.048;2023-03-01T14:50:51;5.97;;;2.50;;
69534;SDS011;56754;51.568;5.048;2023-03-01T14:53:21;5.60;;;2.33;;
69534;SDS011;56754;51.568;5.048;2023-03-01T14:55:53;4.85;;;2.10;;
69534;SDS011;56754;51.568;5.048;2023-03-01T14:58:21;5.40;;;2.40;;
69534;SDS011;56754;51.568;5.048;2023-03-01T15:00:58;5.57;;;2.40;;
69534;SDS011;56754;51.568;5.048;2023-03-01T15:03:27;4.95;;;2.22;;
69534;SDS011;56754;51.568;5.048;2023-03-01T15:05:57;4.90;;;2.10;;
69534;SDS011;56754;51.568;5.048;2023-03-01T15:08:25;6.50;;;2.40;;
69534;SDS011;56754;51.568;5.048;2023-03-01T15:11:05;5.13;;;2.37;;
69534;SDS011;56754;51.568;5.048;2023-03-01T15:13:51;6.03;;;2.28;;
69534;SDS011;56754;51.568;5.048;2023-03-01T15:16:29;6.38;;;2.33;;
69534;SDS011;56754;51.568;5.048;2023-03-01T15:18:56;5.35;;;2.25;;
69534;SDS011;56754;51.568;5.048;2023-03-01T15:21:26;5.57;;;2.40;;
69534;SDS011;56754;51.568;5.048;2023-03-01T15:24:05;5.77;;;2.43;;
69534;SDS011;56754;51.568;5.048;2023-03-01T15:26:32;5.40;;;2.30;;
69534;SDS011;56754;51.568;5.048;2023-03-01T15:29:04;6.22;;;2.70;;
69534;SDS011;56754;51.568;5.048;2023-03-01T15:31:31;5.70;;;2.30;;
69534;SDS011;56754;51.568;5.048;2023-03-01T15:36:49;6.88;;;2.40;;
69534;SDS011;56754;51.568;5.048;2023-03-01T15:42:10;5.57;;;2.20;;
69534;SDS011;56754;51.568;5.048;2023-03-01T15:45:07;5.63;;;2.40;;
69534;SDS011;56754;51.568;5.048;2023-03-01T15:47:39;5.82;;;2.47;;
69534;SDS011;56754;51.568;5.048;2023-03-01T15:50:11;5.88;;;2.22;;
69534;SDS011;56754;51.568;5.048;2023-03-01T15:52:42;6.05;;;2.20;;
69534;SDS011;56754;51.568;5.048;2023-03-01T15:55:18;6.10;;;2.50;;
69534;SDS011;56754;51.568;5.048;2023-03-01T15:57:49;6.93;;;2.58;;
69534;SDS011;56754;51.568;5.048;2023-03-01T16:00:22;5.50;;;2.45;;
69534;SDS011;56754;51.568;5.048;2023-03-01T16:02:47;5.03;;;2.47;;
69534;SDS011;56754;51.568;5.048;2023-03-01T16:05:34;5.70;;;2.40;;
69534;SDS011;56754;51.568;5.048;2023-03-01T16:07:59;6.13;;;2.50;;
69534;SDS011;56754;51.568;5.048;2023-03-01T16:10:24;5.73;;;2.33;;
69534;SDS011;56754;51.568;5.048;2023-03-01T16:12:50;6.32;;;2.35;;
69534;SDS011;56754;51.568;5.048;2023-03-01T16:15:17;6.53;;;2.20;;
69534;SDS011;56754;51.568;5.048;2023-03-01T16:17:44;5.65;;;2.35;;
69534;SDS011;56754;51.568;5.048;2023-03-01T16:20:10;5.30;;;2.33;;
69534;SDS011;56754;51.568;5.048;2023-03-01T16:22:35;4.97;;;2.10;;
69534;SDS011;56754;51.568;5.048;2023-03-01T16:25:00;5.53;;;2.20;;
69534;SDS011;56754;51.568;5.048;2023-03-01T16:27:26;5.43;;;2.13;;
69534;SDS011;56754;51.568;5.048;2023-03-01T16:29:51;4.90;;;2.37;;
69534;SDS011;56754;51.568;5.048;2023-03-01T16:32:16;6.50;;;2.50;;
69534;SDS011;56754;51.568;5.048;2023-03-01T16:34:42;5.72;;;2.25;;
69534;SDS011;56754;51.568;5.048;2023-03-01T16:37:07;5.57;;;2.40;;
69534;SDS011;56754;51.568;5.048;2023-03-01T16:39:32;6.10;;;2.30;;
69534;SDS011;56754;51.568;5.048;2023-03-01T16:41:59;5.20;;;2.30;;
69534;SDS011;56754;51.568;5.048;2023-03-01T16:44:25;5.47;;;2.25;;
69534;SDS011;56754;51.568;5.048;2023-03-01T16:46:50;5.20;;;2.30;;
69534;SDS011;56754;51.568;5.048;2023-03-01T16:49:15;6.63;;;2.60;;
69534;SDS011;56754;51.568;5.048;2023-03-01T16:51:42;5.80;;;2.40;;
69534;SDS011;56754;51.568;5.048;2023-03-01T16:54:07;6.63;;;2.77;;
69534;SDS011;56754;51.568;5.048;2023-03-01T16:56:32;5.87;;;2.53;;
69534;SDS011;56754;51.568;5.048;2023-03-01T16:58:57;5.97;;;2.60;;
69534;SDS011;56754;51.568;5.048;2023-03-01T17:01:23;5.93;;;2.50;;
69534;SDS011;56754;51.568;5.048;2023-03-01T17:03:49;5.80;;;2.47;;
69534;SDS011;56754;51.568;5.048;2023-03-01T17:06:16;6.83;;;2.50;;
69534;SDS011;56754;51.568;5.048;2023-03-01T17:08:44;7.35;;;2.35;;